Terminal Aerodrome Forecast
Issued by NWS

Home | Current Version | Previous Version | Text Only | Print | Product List | Glossary On
Versions: 1 2 3 4 5 6 7 8 9 10 11 12 13
000
FTUS45 KGJT 292335
TAFRIL
TAF
KRIL 292335Z 3000/3024 02012G17KT P6SM VCTS SCT090CB BKN110
      TEMPO 3000/3002 VRB15G32KT -TSRA BKN080CB
     FM300300 16004KT P6SM SCT250
     FM301000 04004KT P6SM SKC
     FM301700 26004KT P6SM FEW090 SCT250
     FM301900 31006KT P6SM VCTS SCT090CB BKN200=

USA.gov is the U.S. government's official web portal to all federal, state and local government web resources and services.